Terminal Aerodrome Forecast
Issued by NWS Chicago, IL

Home | Current Version | Previous Version | Graphics & Text | Print | Product List | Glossary On
Versions: 1 2 3 4 5 6 7 8 9 10 11 12 13 14 15 16 17 18 19 20 21 22 23
000
FTUS43 KLOT 051733
TAFRFD
TAF
KRFD 051733Z 0518/0618 01010KT P6SM SKC
     FM051900 33008KT P6SM SKC
     FM060100 25003KT P6SM FEW250
     FM060800 VRB02KT P6SM BKN090
     FM060900 26008KT P6SM SCT090=

USA.gov is the U.S. government's official web portal to all federal, state and local government web resources and services.